createdAt,value
2019-06-01T00:02:08.027Z,71.97
2019-06-01T00:04:42.898Z,71.87
2019-06-01T00:07:16.251Z,71.62
2019-06-01T00:09:49.766Z,71.77
2019-06-01T00:12:23.250Z,71.88
2019-06-01T00:14:56.650Z,71.74
2019-06-01T00:17:29.863Z,71.67
2019-06-01T00:20:04.522Z,71.71
2019-06-01T00:22:37.751Z,71.55
2019-06-01T00:25:11.165Z,71.63
2019-06-01T00:27:44.676Z,71.74
2019-06-01T00:30:26.609Z,71.91
2019-06-01T00:32:53.201Z,72.16
2019-06-01T00:35:26.496Z,72.25
2019-06-01T00:37:59.792Z,72.24
2019-06-01T00:40:32.971Z,72.47
2019-06-01T00:43:06.385Z,72.39
2019-06-01T00:45:39.763Z,72.46
2019-06-01T00:48:12.870Z,72.35
2019-06-01T00:50:46.830Z,72.19
2019-06-01T00:53:20.065Z,72.22
2019-06-01T00:55:53.685Z,72.26
2019-06-01T00:58:27.086Z,72.21
2019-06-01T01:01:00.363Z,72.43
2019-06-01T01:03:33.777Z,72.42
2019-06-01T01:06:07.054Z,73.12
2019-06-01T01:08:40.574Z,74.19
2019-06-01T01:11:13.848Z,73.87
2019-06-01T01:13:49.231Z,73.60
2019-06-01T01:16:22.607Z,73.50
2019-06-01T01:18:56.032Z,73.22
2019-06-01T01:21:30.430Z,72.90
2019-06-01T01:24:03.723Z,72.55
2019-06-01T01:26:37.125Z,72.44
2019-06-01T01:29:10.504Z,72.51
2019-06-01T01:31:43.919Z,72.55
2019-06-01T01:34:17.098Z,72.64
2019-06-01T01:36:52.754Z,72.71
2019-06-01T01:39:26.654Z,72.67
2019-06-01T01:42:00.072Z,72.82
2019-06-01T01:44:33.657Z,72.80
2019-06-01T01:47:06.969Z,72.62
2019-06-01T01:49:40.163Z,72.45
2019-06-01T01:52:14.584Z,72.71
2019-06-01T01:54:47.869Z,72.68
2019-06-01T01:57:22.200Z,72.71
2019-06-01T01:59:55.415Z,72.67
2019-06-01T02:02:28.780Z,72.74
2019-06-01T02:05:02.243Z,73.15
2019-06-01T02:07:36.306Z,72.96
2019-06-01T02:10:09.768Z,72.69
2019-06-01T02:12:42.894Z,72.74
2019-06-01T02:15:16.295Z,73.16
2019-06-01T02:17:49.487Z,73.00
2019-06-01T02:20:22.764Z,72.82
2019-06-01T02:22:56.760Z,72.66
2019-06-01T02:25:31.627Z,72.58
2019-06-01T02:28:04.823Z,72.63
2019-06-01T02:30:38.100Z,72.52
2019-06-01T02:33:11.528Z,72.67
2019-06-01T02:35:44.693Z,72.57
2019-06-01T02:38:18.110Z,72.65
2019-06-01T02:40:51.492Z,72.68
2019-06-01T02:43:24.784Z,72.62
2019-06-01T02:45:58.204Z,72.63
2019-06-01T02:48:31.602Z,72.45
2019-06-01T02:51:05.490Z,72.39
2019-06-01T02:53:38.803Z,72.31
2019-06-01T02:56:12.202Z,72.36
2019-06-01T02:58:45.603Z,72.33
2019-06-01T03:01:27.884Z,72.27
2019-06-01T03:04:01.524Z,72.27
2019-06-01T03:06:34.801Z,72.24
2019-06-01T03:09:09.072Z,72.30
2019-06-01T03:11:42.507Z,72.20
2019-06-01T03:14:15.713Z,72.19
2019-06-01T03:16:48.896Z,72.23
2019-06-01T03:19:24.275Z,72.14
2019-06-01T03:21:59.645Z,72.18
2019-06-01T03:24:35.649Z,72.17
2019-06-01T03:27:09.047Z,72.16
2019-06-01T03:29:42.548Z,72.10
2019-06-01T03:32:34.267Z,71.97
2019-06-01T03:34:49.981Z,71.84
2019-06-01T03:37:22.844Z,71.83
2019-06-01T03:39:56.247Z,71.69
2019-06-01T03:42:29.540Z,71.78
2019-06-01T03:45:03.491Z,71.89
2019-06-01T03:47:36.728Z,71.88
2019-06-01T03:50:10.044Z,71.76
2019-06-01T03:52:43.629Z,71.76
2019-06-01T03:55:16.737Z,71.66
2019-06-01T03:57:50.034Z,71.51
2019-06-01T04:00:24.350Z,71.45
2019-06-01T04:02:57.748Z,71.29
2019-06-01T04:05:32.258Z,71.24
2019-06-01T04:08:05.688Z,71.30
2019-06-01T04:10:40.197Z,71.18
2019-06-01T04:13:13.390Z,70.68
2019-06-01T04:15:46.787Z,69.36
2019-06-01T04:18:20.084Z,68.77
2019-06-01T04:20:53.491Z,68.58
2019-06-01T04:23:26.763Z,67.91
2019-06-01T04:26:00.089Z,67.10
2019-06-01T04:28:33.481Z,66.52
2019-06-01T04:31:06.872Z,65.21
2019-06-01T04:33:40.359Z,64.31
2019-06-01T04:36:13.564Z,64.10
2019-06-01T04:38:46.740Z,64.20
2019-06-01T04:41:20.054Z,63.50
2019-06-01T04:43:53.229Z,63.21
2019-06-01T04:46:26.426Z,62.79
2019-06-01T04:48:59.737Z,61.91
2019-06-01T04:51:32.813Z,60.99
2019-06-01T04:54:06.864Z,61.84
2019-06-01T04:56:40.021Z,61.30
2019-06-01T04:59:13.107Z,61.00
2019-06-01T05:01:46.404Z,61.21
2019-06-01T05:04:19.615Z,60.64
2019-06-01T05:06:52.809Z,60.06
2019-06-01T05:09:26.206Z,60.17
2019-06-01T05:11:59.381Z,59.85
2019-06-01T05:14:32.705Z,60.30
2019-06-01T05:17:06.003Z,60.16
2019-06-01T05:19:39.296Z,59.68
2019-06-01T05:22:12.686Z,60.02
2019-06-01T05:24:45.776Z,59.88
2019-06-01T05:27:19.178Z,59.68
2019-06-01T05:29:52.554Z,59.58
2019-06-01T05:32:25.975Z,59.32
2019-06-01T05:34:59.373Z,58.89
2019-06-01T05:37:32.565Z,58.73
2019-06-01T05:40:12.360Z,58.48
2019-06-01T05:42:45.501Z,58.65
2019-06-01T05:45:19.275Z,58.14
2019-06-01T05:47:52.501Z,57.53
2019-06-01T05:50:25.784Z,57.41
2019-06-01T05:52:59.198Z,56.56
2019-06-01T05:55:32.392Z,56.58
2019-06-01T05:58:05.581Z,56.72
2019-06-01T06:00:42.872Z,56.40
2019-06-01T06:03:20.793Z,55.91
2019-06-01T06:05:51.099Z,55.33
2019-06-01T06:08:24.396Z,54.86
2019-06-01T06:10:57.693Z,54.70
2019-06-01T06:13:30.770Z,54.32
2019-06-01T06:16:04.181Z,54.50
2019-06-01T06:18:37.403Z,53.78
2019-06-01T06:21:12.344Z,52.55
2019-06-01T06:23:45.294Z,51.69
2019-06-01T06:26:19.154Z,51.65
2019-06-01T06:28:53.219Z,51.30
2019-06-01T06:31:26.207Z,50.86
2019-06-01T06:33:59.609Z,50.84
2019-06-01T06:36:32.573Z,50.31
2019-06-01T06:39:07.740Z,49.22
2019-06-01T06:41:40.549Z,48.67
2019-06-01T06:44:14.395Z,48.31
2019-06-01T06:46:47.518Z,47.72
2019-06-01T06:49:21.413Z,48.01
2019-06-01T06:51:54.500Z,47.74
2019-06-01T06:54:27.716Z,47.45
2019-06-01T06:57:00.702Z,46.29
2019-06-01T06:59:33.894Z,46.42
2019-06-01T07:02:07.004Z,45.88
2019-06-01T07:04:40.194Z,45.42
2019-06-01T07:07:13.363Z,45.70
2019-06-01T07:09:46.549Z,45.93
2019-06-01T07:12:19.657Z,46.14
2019-06-01T07:14:52.852Z,45.65
2019-06-01T07:17:25.840Z,45.37
2019-06-01T07:19:59.035Z,45.26
2019-06-01T07:22:32.190Z,44.80
2019-06-01T07:25:07.264Z,44.63
2019-06-01T07:27:39.468Z,44.36
2019-06-01T07:30:12.526Z,44.71
2019-06-01T07:32:45.511Z,44.29
2019-06-01T07:35:18.587Z,43.90
2019-06-01T07:37:51.799Z,43.58
2019-06-01T07:40:24.959Z,43.46
2019-06-01T07:42:59.003Z,43.44
2019-06-01T07:45:35.215Z,42.57
2019-06-01T07:48:07.455Z,42.63
2019-06-01T07:50:40.413Z,42.66
2019-06-01T07:53:13.403Z,42.13
2019-06-01T07:55:46.596Z,42.39
2019-06-01T07:58:20.825Z,41.94
2019-06-01T08:00:53.923Z,42.12
2019-06-01T08:03:29.476Z,41.25
2019-06-01T08:06:01.038Z,41.65
2019-06-01T08:08:33.806Z,42.07
2019-06-01T08:11:06.898Z,42.21
2019-06-01T08:13:40.197Z,41.65
2019-06-01T08:16:13.286Z,40.62
2019-06-01T08:18:46.262Z,40.75
2019-06-01T08:21:19.453Z,40.70
2019-06-01T08:23:52.561Z,40.23
2019-06-01T08:26:26.464Z,39.58
2019-06-01T08:28:59.561Z,39.71
2019-06-01T08:31:33.691Z,39.91
2019-06-01T08:34:06.865Z,40.11
2019-06-01T08:36:39.861Z,38.73
2019-06-01T08:39:13.932Z,39.25
2019-06-01T08:41:46.909Z,39.17
2019-06-01T08:44:20.064Z,37.99
2019-06-01T08:46:53.255Z,38.29
2019-06-01T08:49:27.890Z,38.56
2019-06-01T08:52:00.964Z,38.85
2019-06-01T08:54:34.400Z,39.06
2019-06-01T08:57:07.534Z,38.35
2019-06-01T08:59:40.647Z,37.30
2019-06-01T09:02:13.839Z,37.49
2019-06-01T09:04:47.149Z,37.27
2019-06-01T09:07:20.004Z,37.00
2019-06-01T09:09:54.227Z,37.42
2019-06-01T09:12:27.343Z,37.39
2019-06-01T09:15:00.303Z,37.19
2019-06-01T09:17:33.541Z,37.86
2019-06-01T09:20:06.811Z,37.74
2019-06-01T09:22:39.681Z,37.12
2019-06-01T09:25:12.874Z,37.38
2019-06-01T09:27:45.960Z,37.27
2019-06-01T09:30:19.070Z,36.67
2019-06-01T09:32:52.063Z,36.72
2019-06-01T09:35:44.772Z,36.58
2019-06-01T09:37:59.981Z,35.94
2019-06-01T09:40:33.568Z,36.65
2019-06-01T09:43:07.680Z,35.67
2019-06-01T09:45:40.686Z,36.26
2019-06-01T09:48:13.766Z,36.17
2019-06-01T09:50:47.080Z,35.89
2019-06-01T09:53:20.152Z,35.89
2019-06-01T09:55:53.139Z,34.65
2019-06-01T09:58:26.334Z,34.83
2019-06-01T10:00:59.340Z,35.56
2019-06-01T10:03:32.623Z,35.32
2019-06-01T10:06:05.727Z,35.63
2019-06-01T10:08:38.613Z,36.10
2019-06-01T10:11:11.704Z,35.21
2019-06-01T10:13:44.675Z,34.96
2019-06-01T10:16:18.909Z,36.19
2019-06-01T10:18:49.632Z,35.41
2019-06-01T10:21:39.215Z,35.11
2019-06-01T10:24:12.407Z,34.79
2019-06-01T10:26:45.706Z,34.89
2019-06-01T10:29:18.790Z,34.82
2019-06-01T10:31:52.997Z,34.74
2019-06-01T10:34:26.310Z,34.81
2019-06-01T10:36:59.483Z,35.16
2019-06-01T10:39:33.043Z,35.37
2019-06-01T10:42:06.197Z,34.85
2019-06-01T10:44:44.072Z,35.48
2019-06-01T10:47:14.222Z,35.98
2019-06-01T10:49:47.313Z,36.24
2019-06-01T10:52:20.588Z,36.03
2019-06-01T10:54:53.908Z,35.84
2019-06-01T10:57:26.975Z,35.37
2019-06-01T11:00:00.278Z,34.95
2019-06-01T11:02:34.768Z,33.64
2019-06-01T11:05:08.193Z,33.50
2019-06-01T11:07:41.247Z,33.87
2019-06-01T11:10:15.315Z,34.56
2019-06-01T11:12:48.592Z,34.89
2019-06-01T11:15:22.213Z,34.28
2019-06-01T11:17:55.307Z,33.80
2019-06-01T11:20:28.583Z,33.86
2019-06-01T11:23:01.811Z,34.17
2019-06-01T11:25:35.636Z,33.13
2019-06-01T11:28:08.798Z,32.35
2019-06-01T11:30:53.733Z,32.13
2019-06-01T11:33:26.853Z,32.13
2019-06-01T11:36:00.041Z,31.86
2019-06-01T11:38:34.646Z,31.69
2019-06-01T11:41:07.864Z,32.65
2019-06-01T11:43:40.834Z,32.62
2019-06-01T11:46:13.941Z,32.11
2019-06-01T11:48:47.239Z,31.29
2019-06-01T11:51:20.537Z,31.08
2019-06-01T11:53:53.816Z,31.25
2019-06-01T11:56:27.126Z,31.21
2019-06-01T11:59:00.404Z,31.14
2019-06-01T12:01:33.497Z,31.00
2019-06-01T12:04:06.705Z,31.40
2019-06-01T12:06:39.872Z,31.42
2019-06-01T12:09:12.983Z,31.52
2019-06-01T12:11:46.403Z,31.35
2019-06-01T12:14:19.685Z,30.90
2019-06-01T12:16:52.867Z,30.76
2019-06-01T12:19:26.075Z,30.73
2019-06-01T12:21:59.368Z,30.88
2019-06-01T12:24:32.647Z,30.46
2019-06-01T12:27:06.063Z,30.82
2019-06-01T12:29:39.463Z,30.61
2019-06-01T12:32:12.557Z,30.51
2019-06-01T12:34:46.290Z,30.46
2019-06-01T12:37:36.164Z,30.08
2019-06-01T12:39:54.466Z,30.07
2019-06-01T12:42:27.786Z,30.31
2019-06-01T12:45:01.107Z,30.10
2019-06-01T12:47:34.374Z,30.42
2019-06-01T12:50:07.974Z,30.90
2019-06-01T12:52:42.203Z,31.27
2019-06-01T12:55:15.284Z,30.69
2019-06-01T12:57:49.316Z,31.05
2019-06-01T13:00:23.446Z,31.09
2019-06-01T13:03:07.094Z,31.07
2019-06-01T13:05:30.534Z,31.08
2019-06-01T13:08:03.401Z,31.36
2019-06-01T13:10:36.698Z,31.28
2019-06-01T13:13:09.891Z,30.69
2019-06-01T13:15:45.148Z,31.19
2019-06-01T13:18:18.204Z,32.09
2019-06-01T13:20:51.699Z,31.90
2019-06-01T13:23:24.815Z,31.61
2019-06-01T13:25:58.014Z,31.04
2019-06-01T13:28:38.067Z,31.74
2019-06-01T13:31:05.829Z,31.71
2019-06-01T13:33:39.209Z,31.18
2019-06-01T13:36:12.336Z,30.78
2019-06-01T13:38:46.631Z,30.75
2019-06-01T13:41:19.609Z,30.85
2019-06-01T13:43:53.451Z,31.28
2019-06-01T13:46:26.738Z,30.85
2019-06-01T13:49:00.009Z,31.12
2019-06-01T13:51:33.717Z,31.40
2019-06-01T13:54:07.749Z,31.81
2019-06-01T13:56:40.717Z,31.76
2019-06-01T13:59:14.035Z,31.94
2019-06-01T14:01:48.683Z,32.28
2019-06-01T14:04:21.362Z,31.97
2019-06-01T14:06:55.487Z,32.19
2019-06-01T14:09:28.688Z,31.38
2019-06-01T14:12:01.747Z,31.45
2019-06-01T14:14:35.031Z,31.71
2019-06-01T14:17:08.329Z,31.67
2019-06-01T14:19:41.524Z,31.77
2019-06-01T14:22:14.820Z,31.09
2019-06-01T14:25:06.437Z,31.25
2019-06-01T14:27:21.963Z,31.15
2019-06-01T14:29:54.912Z,31.26
2019-06-01T14:32:28.001Z,31.19
2019-06-01T14:35:01.336Z,31.03
2019-06-01T14:37:34.491Z,31.64
2019-06-01T14:40:07.877Z,32.10
2019-06-01T14:42:40.732Z,32.17
2019-06-01T14:45:13.856Z,31.37
2019-06-01T14:47:49.453Z,31.48
2019-06-01T14:50:22.508Z,31.44
2019-06-01T14:52:55.753Z,32.33
2019-06-01T14:55:28.878Z,31.89
2019-06-01T14:58:02.195Z,32.33
2019-06-01T15:00:35.485Z,32.23
2019-06-01T15:03:08.684Z,31.89
2019-06-01T15:05:41.974Z,32.16
2019-06-01T15:08:14.945Z,32.08
2019-06-01T15:10:48.746Z,31.84
2019-06-01T15:13:21.742Z,31.66
2019-06-01T15:15:55.587Z,32.19
2019-06-01T15:18:28.658Z,32.58
2019-06-01T15:21:02.203Z,32.37
2019-06-01T15:23:35.251Z,32.72
2019-06-01T15:26:08.549Z,32.28
2019-06-01T15:28:41.639Z,32.57
2019-06-01T15:31:14.934Z,32.61
2019-06-01T15:33:48.026Z,32.96
2019-06-01T15:36:21.324Z,33.13
2019-06-01T15:38:55.556Z,33.21
2019-06-01T15:41:28.712Z,33.41
2019-06-01T15:44:01.825Z,33.27
2019-06-01T15:46:35.018Z,33.52
2019-06-01T15:49:09.218Z,34.49
2019-06-01T15:51:42.535Z,36.01
2019-06-01T15:54:15.988Z,37.49
2019-06-01T15:56:49.149Z,38.17
2019-06-01T15:59:22.520Z,39.23
2019-06-01T16:01:57.354Z,39.55
2019-06-01T16:04:30.545Z,40.29
2019-06-01T16:07:03.613Z,40.87
2019-06-01T16:09:42.470Z,41.11
2019-06-01T16:12:11.539Z,41.90
2019-06-01T16:14:44.854Z,42.62
2019-06-01T16:17:18.161Z,43.01
2019-06-01T16:19:51.343Z,43.16
2019-06-01T16:22:24.640Z,43.68
2019-06-01T16:24:58.136Z,43.84
2019-06-01T16:27:31.423Z,44.51
2019-06-01T16:30:06.854Z,44.83
2019-06-01T16:32:40.052Z,45.31
2019-06-01T16:35:13.282Z,45.51
2019-06-01T16:37:46.243Z,46.11
2019-06-01T16:40:19.552Z,46.47
2019-06-01T16:42:52.642Z,47.04
2019-06-01T16:45:25.820Z,47.30
2019-06-01T16:47:59.493Z,47.48
2019-06-01T16:50:32.618Z,47.62
2019-06-01T16:53:06.361Z,47.91
2019-06-01T16:55:39.533Z,48.68
2019-06-01T16:58:12.728Z,48.96
2019-06-01T17:00:45.805Z,49.10
2019-06-01T17:03:19.100Z,49.44
2019-06-01T17:05:52.419Z,49.21
2019-06-01T17:08:25.603Z,49.44
2019-06-01T17:10:58.779Z,49.67
2019-06-01T17:13:33.097Z,49.71
2019-06-01T17:16:07.185Z,49.81
2019-06-01T17:18:40.425Z,49.66
2019-06-01T17:21:13.821Z,49.83
2019-06-01T17:23:48.433Z,49.77
2019-06-01T17:26:21.537Z,49.95
2019-06-01T17:28:55.962Z,50.10
2019-06-01T17:31:29.466Z,50.28
2019-06-01T17:34:02.875Z,50.33
2019-06-01T17:36:36.057Z,50.42
2019-06-01T17:39:09.453Z,50.68
2019-06-01T17:41:42.849Z,50.55
2019-06-01T17:44:15.943Z,50.38
2019-06-01T17:46:53.429Z,50.20
2019-06-01T17:49:23.171Z,49.97
2019-06-01T17:51:56.239Z,49.86
2019-06-01T17:54:29.436Z,49.70
2019-06-01T17:57:05.019Z,49.52
2019-06-01T17:59:38.077Z,49.47
2019-06-01T18:02:11.922Z,49.57
2019-06-01T18:04:45.068Z,49.43
2019-06-01T18:07:18.168Z,49.53
2019-06-01T18:09:51.344Z,49.58
2019-06-01T18:12:24.653Z,49.60
2019-06-01T18:14:57.848Z,49.59
2019-06-01T18:17:31.246Z,49.76
2019-06-01T18:20:08.708Z,49.66
2019-06-01T18:22:41.930Z,49.85
2019-06-01T18:25:20.379Z,49.99
2019-06-01T18:27:53.333Z,49.99
2019-06-01T18:30:26.524Z,49.96
2019-06-01T18:33:01.052Z,49.98
2019-06-01T18:35:35.453Z,49.88
2019-06-01T18:38:09.833Z,50.00
2019-06-01T18:40:42.868Z,50.01
2019-06-01T18:43:17.258Z,49.99
2019-06-01T18:45:50.173Z,49.87
2019-06-01T18:48:23.589Z,49.88
2019-06-01T18:50:56.681Z,49.91
2019-06-01T18:53:30.987Z,49.91
2019-06-01T18:56:04.219Z,49.82
2019-06-01T18:58:37.474Z,49.93
2019-06-01T19:01:10.821Z,50.03
2019-06-01T19:03:44.986Z,50.19
2019-06-01T19:06:18.186Z,50.27
2019-06-01T19:08:51.596Z,50.30
2019-06-01T19:11:35.478Z,50.35
2019-06-01T19:13:59.615Z,50.40
2019-06-01T19:16:32.846Z,50.58
2019-06-01T19:19:06.349Z,50.64
2019-06-01T19:21:39.401Z,50.81
2019-06-01T19:24:12.730Z,50.91
2019-06-01T19:26:46.100Z,51.11
2019-06-01T19:29:19.501Z,51.42
2019-06-01T19:31:52.876Z,51.83
2019-06-01T19:34:26.171Z,52.11
2019-06-01T19:36:59.987Z,52.63
2019-06-01T19:39:33.074Z,52.86
2019-06-01T19:42:07.186Z,53.15
2019-06-01T19:44:40.400Z,53.75
2019-06-01T19:47:13.912Z,54.15
2019-06-01T19:49:48.214Z,53.74
2019-06-01T19:52:21.407Z,53.38
2019-06-01T19:54:54.790Z,53.20
2019-06-01T19:57:28.092Z,51.76
2019-06-01T20:00:04.449Z,50.98
2019-06-01T20:02:35.641Z,50.52
2019-06-01T20:05:08.587Z,50.89
2019-06-01T20:07:41.901Z,51.08
2019-06-01T20:10:16.305Z,51.30
2019-06-01T20:12:49.412Z,51.75
2019-06-01T20:15:22.489Z,52.14
2019-06-01T20:17:55.784Z,52.58
2019-06-01T20:20:28.976Z,52.92
2019-06-01T20:23:02.194Z,53.09
2019-06-01T20:25:35.384Z,53.96
2019-06-01T20:28:08.677Z,54.71
2019-06-01T20:30:41.961Z,55.83
2019-06-01T20:33:15.999Z,57.44
2019-06-01T20:35:49.185Z,59.87
2019-06-01T20:38:23.404Z,61.11
2019-06-01T20:40:56.572Z,61.87
2019-06-01T20:43:29.772Z,63.63
2019-06-01T20:46:03.184Z,63.85
2019-06-01T20:48:36.481Z,64.56
2019-06-01T20:51:09.672Z,65.37
2019-06-01T20:53:42.969Z,65.25
2019-06-01T20:56:17.286Z,65.16
2019-06-01T20:58:50.567Z,65.65
2019-06-01T21:01:24.005Z,66.29
2019-06-01T21:03:57.282Z,66.49
2019-06-01T21:06:30.692Z,66.60
2019-06-01T21:09:05.492Z,66.99
2019-06-01T21:11:39.298Z,66.53
2019-06-01T21:14:13.789Z,68.33
2019-06-01T21:16:46.812Z,68.33
2019-06-01T21:19:20.446Z,68.30
2019-06-01T21:21:53.728Z,68.24
2019-06-01T21:24:27.026Z,67.22
2019-06-01T21:27:00.421Z,67.75
2019-06-01T21:29:33.509Z,67.33
2019-06-01T21:32:06.909Z,67.05
2019-06-01T21:34:40.186Z,66.86
2019-06-01T21:37:13.381Z,66.24
2019-06-01T21:39:46.490Z,65.83
2019-06-01T21:42:19.888Z,65.82
2019-06-01T21:44:52.861Z,65.22
2019-06-01T21:47:26.277Z,64.96
2019-06-01T21:49:59.469Z,64.59
2019-06-01T21:52:32.643Z,63.75
2019-06-01T21:55:07.800Z,63.20
2019-06-01T21:57:40.791Z,62.63
2019-06-01T22:00:18.747Z,61.98
2019-06-01T22:02:53.404Z,61.64
2019-06-01T22:05:27.320Z,61.34
2019-06-01T22:08:01.428Z,61.21
2019-06-01T22:10:34.738Z,60.99
2019-06-01T22:13:18.241Z,60.88
2019-06-01T22:15:43.071Z,60.74
2019-06-01T22:18:17.588Z,60.63
2019-06-01T22:20:50.773Z,60.70
2019-06-01T22:23:24.085Z,61.03
2019-06-01T22:25:57.363Z,60.88
2019-06-01T22:28:30.480Z,60.80
2019-06-01T22:31:03.748Z,60.62
2019-06-01T22:33:37.166Z,60.62
2019-06-01T22:36:10.237Z,60.70
2019-06-01T22:38:43.653Z,60.82
2019-06-01T22:41:16.953Z,60.76
2019-06-01T22:43:50.142Z,61.11
2019-06-01T22:46:24.420Z,61.00
2019-06-01T22:48:57.641Z,61.09
2019-06-01T22:51:30.849Z,61.16
2019-06-01T22:54:04.259Z,61.09
2019-06-01T22:56:37.442Z,61.12
2019-06-01T22:59:10.740Z,61.13
2019-06-01T23:01:43.811Z,61.15
2019-06-01T23:04:17.125Z,61.25
2019-06-01T23:06:50.318Z,61.33
2019-06-01T23:09:23.628Z,61.57
2019-06-01T23:11:56.792Z,61.67
2019-06-01T23:14:31.449Z,61.74
2019-06-01T23:17:04.425Z,61.86
2019-06-01T23:19:37.501Z,62.25
2019-06-01T23:22:10.813Z,62.30
2019-06-01T23:24:44.107Z,62.19
2019-06-01T23:27:17.290Z,62.38
2019-06-01T23:29:50.595Z,62.66
2019-06-01T23:32:24.532Z,62.89
2019-06-01T23:34:57.707Z,62.94
2019-06-01T23:37:30.940Z,62.93
2019-06-01T23:40:05.158Z,62.93
2019-06-01T23:42:38.084Z,62.80
2019-06-01T23:45:11.381Z,62.78
2019-06-01T23:47:44.592Z,62.56
2019-06-01T23:50:17.765Z,62.54
2019-06-01T23:52:51.899Z,62.51
2019-06-01T23:55:25.466Z,62.35
2019-06-01T23:57:58.600Z,62.38
